createdAt,value
2023-05-22T00:00:54.988Z,14.13
2023-05-22T00:03:57.614Z,13.20
2023-05-22T00:07:00.371Z,12.95
2023-05-22T00:10:07.307Z,13.75
2023-05-22T00:13:10.042Z,13.40
2023-05-22T00:16:12.617Z,13.70
2023-05-22T00:19:19.746Z,14.00
2023-05-22T00:22:24.994Z,13.00
2023-05-22T00:25:27.578Z,14.27
2023-05-22T00:28:30.302Z,13.48
2023-05-22T00:31:32.990Z,14.57
2023-05-22T00:34:35.687Z,14.10
2023-05-22T00:37:38.391Z,14.30
2023-05-22T00:40:41.324Z,13.48
2023-05-22T00:43:45.666Z,13.48
2023-05-22T00:46:48.392Z,13.50
2023-05-22T00:49:54.107Z,13.83
2023-05-22T00:52:57.051Z,14.20
2023-05-22T00:56:00.143Z,14.15
2023-05-22T00:59:03.046Z,14.02
2023-05-22T01:02:05.729Z,14.83
2023-05-22T01:05:11.306Z,14.83
2023-05-22T01:08:18.804Z,15.35
2023-05-22T01:11:37.895Z,13.73
2023-05-22T01:14:49.196Z,14.52
2023-05-22T01:18:30.414Z,14.67
2023-05-22T01:21:47.392Z,16.00
2023-05-22T01:25:12.212Z,16.90
2023-05-22T01:28:48.781Z,15.52
2023-05-22T01:31:52.913Z,16.27
2023-05-22T01:34:59.629Z,16.80
2023-05-22T01:38:15.945Z,16.00
2023-05-22T01:41:18.798Z,15.23
2023-05-22T01:44:21.543Z,15.30
2023-05-22T01:47:30.303Z,16.85
2023-05-22T01:50:33.570Z,15.43
2023-05-22T01:54:07.686Z,15.90
2023-05-22T01:57:18.917Z,16.00
2023-05-22T02:00:25.004Z,15.55
2023-05-22T02:03:34.152Z,16.40
2023-05-22T02:06:39.868Z,15.70
2023-05-22T02:09:48.644Z,15.37
2023-05-22T02:12:51.778Z,15.43
2023-05-22T02:15:58.626Z,15.35
2023-05-22T02:19:08.018Z,15.32
2023-05-22T02:22:13.914Z,16.60
2023-05-22T02:25:17.715Z,15.60
2023-05-22T02:28:21.867Z,17.05
2023-05-22T02:31:24.596Z,17.00
2023-05-22T02:34:27.808Z,16.30
2023-05-22T02:37:30.608Z,16.87
2023-05-22T02:40:34.985Z,16.57
2023-05-22T02:43:40.816Z,17.85
2023-05-22T02:46:45.789Z,16.85
2023-05-22T02:49:48.433Z,17.67
2023-05-22T02:52:53.565Z,18.03
2023-05-22T02:55:59.053Z,16.73
2023-05-22T02:59:01.727Z,15.55
2023-05-22T03:02:13.518Z,17.42
2023-05-22T03:05:19.192Z,20.75
2023-05-22T03:08:21.804Z,18.87
2023-05-22T03:11:24.555Z,19.30
2023-05-22T03:14:27.443Z,17.90
2023-05-22T03:17:32.786Z,18.77
2023-05-22T03:20:35.439Z,18.95
2023-05-22T03:23:38.215Z,18.00
2023-05-22T03:26:42.029Z,19.13
2023-05-22T03:29:49.339Z,17.95
2023-05-22T03:32:57.732Z,20.73
2023-05-22T03:36:03.740Z,21.90
2023-05-22T03:39:06.551Z,22.10
2023-05-22T03:42:14.217Z,21.03
2023-05-22T03:45:17.091Z,21.85
2023-05-22T03:48:21.072Z,19.95
2023-05-22T03:51:23.891Z,19.65
2023-05-22T03:54:26.555Z,20.83
2023-05-22T03:57:34.439Z,19.10
2023-05-22T04:00:38.747Z,18.63
2023-05-22T04:03:41.664Z,17.85
2023-05-22T04:06:47.071Z,18.25
2023-05-22T04:09:49.658Z,17.83
2023-05-22T04:12:52.340Z,18.10
2023-05-22T04:15:58.199Z,18.05
2023-05-22T04:19:04.483Z,17.58
2023-05-22T04:22:07.578Z,18.42
2023-05-22T04:25:10.510Z,16.77
2023-05-22T04:28:13.219Z,17.77
2023-05-22T04:31:18.626Z,16.63
2023-05-22T04:34:24.681Z,16.42
2023-05-22T04:37:28.860Z,16.92
2023-05-22T04:40:33.911Z,16.90
2023-05-22T04:43:38.880Z,15.93
2023-05-22T04:46:46.214Z,15.52
2023-05-22T04:49:49.101Z,14.77
2023-05-22T04:52:51.851Z,15.38
2023-05-22T04:55:55.095Z,14.90
2023-05-22T04:58:58.784Z,16.63
2023-05-22T05:02:01.499Z,14.32
2023-05-22T05:05:04.487Z,15.07
2023-05-22T05:08:07.116Z,12.57
2023-05-22T05:11:09.838Z,13.00
2023-05-22T05:14:12.576Z,13.00
2023-05-22T05:17:15.762Z,12.68
2023-05-22T05:20:18.668Z,12.23
2023-05-22T05:23:22.514Z,10.93
2023-05-22T05:26:25.310Z,8.20
2023-05-22T05:29:53.068Z,6.83
2023-05-22T05:33:03.359Z,7.47
2023-05-22T05:36:17.235Z,6.50
2023-05-22T05:39:21.574Z,6.30
2023-05-22T05:42:24.448Z,6.30
2023-05-22T05:45:28.502Z,6.23
2023-05-22T05:48:32.470Z,6.25
2023-05-22T05:51:36.155Z,5.57
2023-05-22T05:54:46.618Z,5.70
2023-05-22T05:57:57.364Z,5.70
2023-05-22T06:01:12.034Z,6.50
2023-05-22T06:04:15.357Z,5.38
2023-05-22T06:07:21.171Z,5.85
2023-05-22T06:10:27.249Z,5.07
2023-05-22T06:13:37.577Z,5.47
2023-05-22T06:16:42.807Z,5.60
2023-05-22T06:19:45.766Z,5.55
2023-05-22T06:22:53.799Z,4.70
2023-05-22T06:25:56.628Z,5.38
2023-05-22T06:29:00.991Z,5.73
2023-05-22T06:32:06.596Z,5.67
2023-05-22T06:35:10.318Z,5.72
2023-05-22T06:38:13.114Z,5.53
2023-05-22T06:41:17.587Z,5.05
2023-05-22T06:44:21.004Z,5.10
2023-05-22T06:47:29.661Z,5.50
2023-05-22T06:50:32.928Z,5.38
2023-05-22T06:53:35.796Z,6.10
2023-05-22T06:56:38.729Z,5.60
2023-05-22T06:59:47.904Z,5.87
2023-05-22T07:03:09.660Z,5.40
2023-05-22T07:06:50.946Z,5.50
2023-05-22T07:09:54.772Z,5.82
2023-05-22T07:12:57.783Z,5.50
2023-05-22T07:16:01.468Z,5.53
2023-05-22T07:19:04.257Z,5.10
2023-05-22T07:22:07.193Z,5.20
2023-05-22T07:25:12.586Z,5.72
2023-05-22T07:28:22.638Z,5.28
2023-05-22T07:31:39.235Z,5.60
2023-05-22T07:34:42.575Z,5.07
2023-05-22T07:37:45.545Z,5.00
2023-05-22T07:40:48.527Z,5.68
2023-05-22T07:43:51.425Z,5.28
2023-05-22T07:46:58.304Z,5.20
2023-05-22T07:50:05.255Z,4.50
2023-05-22T07:53:11.769Z,4.80
2023-05-22T07:56:17.933Z,5.05
2023-05-22T07:59:22.169Z,5.15
2023-05-22T08:02:26.198Z,5.40
2023-05-22T08:05:29.007Z,5.07
2023-05-22T08:08:33.892Z,4.90
2023-05-22T08:11:39.684Z,4.82
2023-05-22T08:14:42.862Z,4.50
2023-05-22T08:17:46.405Z,4.80
2023-05-22T08:20:49.294Z,4.70
2023-05-22T08:23:52.160Z,4.97
2023-05-22T08:26:57.258Z,4.57
2023-05-22T08:30:00.443Z,5.38
2023-05-22T08:33:03.349Z,5.03
2023-05-22T08:36:08.437Z,5.23
2023-05-22T08:39:12.503Z,4.88
2023-05-22T08:42:15.199Z,4.55
2023-05-22T08:45:19.965Z,4.82
2023-05-22T08:48:23.651Z,4.37
2023-05-22T08:51:29.402Z,4.67
2023-05-22T08:54:33.869Z,4.68
2023-05-22T08:57:37.229Z,4.22
2023-05-22T09:00:41.119Z,4.88
2023-05-22T09:03:49.384Z,3.93
2023-05-22T09:06:53.200Z,4.70
2023-05-22T09:09:56.700Z,4.55
2023-05-22T09:13:04.530Z,4.45
2023-05-22T09:16:13.153Z,4.50
2023-05-22T09:19:16.303Z,4.50
2023-05-22T09:22:20.934Z,4.20
2023-05-22T09:25:26.690Z,4.30
2023-05-22T09:28:34.782Z,4.47
2023-05-22T09:31:44.284Z,4.30
2023-05-22T09:34:48.906Z,4.40
2023-05-22T09:37:52.860Z,4.17
2023-05-22T09:40:56.200Z,4.63
2023-05-22T09:44:09.889Z,4.55
2023-05-22T09:47:12.794Z,4.53
2023-05-22T09:50:15.671Z,4.83
2023-05-22T09:53:19.516Z,8.97
2023-05-22T09:56:34.777Z,5.20
2023-05-22T09:59:43.140Z,4.10
2023-05-22T10:02:47.860Z,20.15
2023-05-22T10:05:52.714Z,6.93
2023-05-22T10:09:02.362Z,5.93
2023-05-22T10:12:07.478Z,4.90
2023-05-22T10:15:13.975Z,4.35
2023-05-22T10:18:17.625Z,3.88
2023-05-22T10:21:21.378Z,4.00
2023-05-22T10:24:25.408Z,4.13
2023-05-22T10:27:28.332Z,4.13
2023-05-22T10:30:31.484Z,3.67
2023-05-22T10:34:02.768Z,4.30
2023-05-22T10:37:18.862Z,4.30
2023-05-22T10:40:30.504Z,4.47
2023-05-22T10:43:33.606Z,4.22
2023-05-22T10:46:36.836Z,4.78
2023-05-22T10:49:49.810Z,3.85
2023-05-22T10:53:12.614Z,4.40
2023-05-22T10:56:16.700Z,3.97
2023-05-22T10:59:34.025Z,3.83
2023-05-22T11:02:45.326Z,4.63
2023-05-22T11:05:54.672Z,4.90
2023-05-22T11:08:57.978Z,4.30
2023-05-22T11:12:28.690Z,5.07
2023-05-22T11:15:32.678Z,4.85
2023-05-22T11:18:35.848Z,4.20
2023-05-22T11:21:46.727Z,4.70
2023-05-22T11:24:49.673Z,4.43
2023-05-22T11:27:56.697Z,4.07
2023-05-22T11:31:00.291Z,4.15
2023-05-22T11:34:03.704Z,5.15
2023-05-22T11:37:06.629Z,4.70
2023-05-22T11:40:10.386Z,5.00
2023-05-22T11:43:13.469Z,4.57
2023-05-22T11:46:16.535Z,4.32
2023-05-22T11:49:24.085Z,4.07
2023-05-22T11:52:31.814Z,4.38
2023-05-22T11:55:36.064Z,4.07
2023-05-22T11:58:39.000Z,4.27
2023-05-22T12:01:42.121Z,3.78
2023-05-22T12:04:45.274Z,4.20
2023-05-22T12:07:54.020Z,4.47
2023-05-22T12:11:28.096Z,3.97
2023-05-22T12:14:31.901Z,4.40
2023-05-22T12:17:37.260Z,21.92
2023-05-22T12:20:54.556Z,4.75
2023-05-22T12:23:57.528Z,4.00
2023-05-22T12:27:00.304Z,5.00
2023-05-22T12:30:10.788Z,3.73
2023-05-22T12:33:17.343Z,4.28
2023-05-22T12:36:20.382Z,4.70
2023-05-22T12:39:23.713Z,4.50
2023-05-22T12:42:30.070Z,4.17
2023-05-22T12:45:33.236Z,4.50
2023-05-22T12:48:36.067Z,4.65
2023-05-22T12:51:45.152Z,4.07
2023-05-22T12:54:48.294Z,4.13
2023-05-22T12:58:01.917Z,4.40
2023-05-22T13:01:06.327Z,4.60
2023-05-22T13:04:18.307Z,4.53
2023-05-22T13:07:21.178Z,3.80
2023-05-22T13:10:24.157Z,3.88
2023-05-22T13:13:27.229Z,5.53
2023-05-22T13:16:31.255Z,5.33
2023-05-22T13:19:34.682Z,4.07
2023-05-22T13:22:37.778Z,5.20
2023-05-22T13:25:40.702Z,4.07
2023-05-22T13:28:43.479Z,4.40
2023-05-22T13:31:46.494Z,4.10
2023-05-22T13:34:49.202Z,4.43
2023-05-22T13:37:52.390Z,3.50
2023-05-22T13:40:55.144Z,4.07
2023-05-22T13:43:57.783Z,4.23
2023-05-22T13:47:01.050Z,5.10
2023-05-22T13:50:03.918Z,4.45
2023-05-22T13:53:06.522Z,3.83
2023-05-22T13:56:09.179Z,4.75
2023-05-22T13:59:11.797Z,4.63
2023-05-22T14:02:14.505Z,4.80
2023-05-22T14:05:17.120Z,5.43
2023-05-22T14:08:19.815Z,4.53
2023-05-22T14:11:22.560Z,5.18
2023-05-22T14:14:25.583Z,4.83
2023-05-22T14:17:30.803Z,5.13
2023-05-22T14:20:33.551Z,4.97
2023-05-22T14:23:36.124Z,5.15
2023-05-22T14:26:39.303Z,4.45
2023-05-22T14:29:42.100Z,5.57
2023-05-22T14:32:46.097Z,4.70
2023-05-22T14:35:48.893Z,5.07
2023-05-22T14:38:55.422Z,4.90
2023-05-22T14:41:58.036Z,4.25
2023-05-22T14:45:00.843Z,4.73
2023-05-22T14:48:03.573Z,5.00
2023-05-22T14:51:06.361Z,4.53
2023-05-22T14:54:13.444Z,4.57
2023-05-22T14:57:19.456Z,4.82
2023-05-22T15:00:22.250Z,4.60
2023-05-22T15:03:25.004Z,4.20
2023-05-22T15:06:27.735Z,5.28
2023-05-22T15:09:31.135Z,4.53
2023-05-22T15:12:33.764Z,3.97
2023-05-22T15:15:36.352Z,3.83
2023-05-22T15:18:39.108Z,4.00
2023-05-22T15:21:42.341Z,3.70
2023-05-22T15:24:47.426Z,3.80
2023-05-22T15:27:49.979Z,5.22
2023-05-22T15:30:52.707Z,4.53
2023-05-22T15:33:55.716Z,4.30
2023-05-22T15:36:58.328Z,4.93
2023-05-22T15:40:02.036Z,4.80
2023-05-22T15:43:05.078Z,4.40
2023-05-22T15:46:07.805Z,5.13
2023-05-22T15:49:10.691Z,4.67
2023-05-22T15:52:13.396Z,4.45
2023-05-22T15:55:16.114Z,5.15
2023-05-22T15:58:20.979Z,4.63
2023-05-22T16:01:26.094Z,4.00
2023-05-22T16:04:28.918Z,4.73
2023-05-22T16:07:31.649Z,4.72
2023-05-22T16:10:34.641Z,4.20
2023-05-22T16:13:37.298Z,5.30
2023-05-22T16:16:39.965Z,5.37
2023-05-22T16:19:43.113Z,4.43
2023-05-22T16:22:48.916Z,4.55
2023-05-22T16:25:51.914Z,4.65
2023-05-22T16:28:57.412Z,4.75
2023-05-22T16:32:00.305Z,5.27
2023-05-22T16:35:03.127Z,4.93
2023-05-22T16:38:07.156Z,5.13
2023-05-22T16:41:09.756Z,4.80
2023-05-22T16:44:12.419Z,4.80
2023-05-22T16:47:15.142Z,5.00
2023-05-22T16:50:17.923Z,4.50
2023-05-22T16:53:20.672Z,4.50
2023-05-22T16:56:23.240Z,4.22
2023-05-22T16:59:26.077Z,4.85
2023-05-22T17:02:29.087Z,4.43
2023-05-22T17:05:31.842Z,4.93
2023-05-22T17:08:34.566Z,4.40
2023-05-22T17:11:37.657Z,6.95
2023-05-22T17:14:40.389Z,4.10
2023-05-22T17:17:42.985Z,4.50
2023-05-22T17:20:49.525Z,4.37
2023-05-22T17:23:52.231Z,3.65
2023-05-22T17:26:54.896Z,4.70
2023-05-22T17:29:57.493Z,4.10
2023-05-22T17:33:00.307Z,4.33
2023-05-22T17:36:02.977Z,3.97
2023-05-22T17:39:05.534Z,4.68
2023-05-22T17:42:08.196Z,4.80
2023-05-22T17:45:10.925Z,4.60
2023-05-22T17:48:14.783Z,4.43
2023-05-22T17:51:17.602Z,4.77
2023-05-22T17:54:20.219Z,4.35
2023-05-22T17:57:22.792Z,4.05
2023-05-22T18:00:25.458Z,4.97
2023-05-22T18:03:28.224Z,4.43
2023-05-22T18:06:31.410Z,5.30
2023-05-22T18:09:34.180Z,5.45
2023-05-22T18:12:38.298Z,4.35
2023-05-22T18:15:41.667Z,4.72
2023-05-22T18:18:45.289Z,5.17
2023-05-22T18:21:47.947Z,4.93
2023-05-22T18:24:51.826Z,5.25
2023-05-22T18:27:55.595Z,5.28
2023-05-22T18:30:58.355Z,5.03
2023-05-22T18:34:00.996Z,6.40
2023-05-22T18:37:03.978Z,5.57
2023-05-22T18:40:09.423Z,13.45
2023-05-22T18:43:12.184Z,5.88
2023-05-22T18:46:14.811Z,5.10
2023-05-22T18:49:17.454Z,5.20
2023-05-22T18:52:20.215Z,4.97
2023-05-22T18:55:23.126Z,5.82
2023-05-22T18:58:25.839Z,5.20
2023-05-22T19:01:28.626Z,5.93
2023-05-22T19:04:31.424Z,5.93
2023-05-22T19:07:34.032Z,4.90
2023-05-22T19:10:36.662Z,5.38
2023-05-22T19:13:40.747Z,5.38
2023-05-22T19:16:44.166Z,4.85
2023-05-22T19:19:46.940Z,5.50
2023-05-22T19:22:51.006Z,5.53
2023-05-22T19:25:53.652Z,4.82
2023-05-22T19:28:59.441Z,5.97
2023-05-22T19:32:02.316Z,7.32
2023-05-22T19:35:05.241Z,8.00
2023-05-22T19:38:07.915Z,7.63
2023-05-22T19:41:10.529Z,7.28
2023-05-22T19:44:13.314Z,6.13
2023-05-22T19:47:16.065Z,7.88
2023-05-22T19:50:18.977Z,6.87
2023-05-22T19:53:21.639Z,5.83
2023-05-22T19:56:24.281Z,7.03
2023-05-22T19:59:27.216Z,7.65
2023-05-22T20:02:29.879Z,10.10
2023-05-22T20:05:32.520Z,14.57
2023-05-22T20:08:36.347Z,20.97
2023-05-22T20:11:38.951Z,24.02
2023-05-22T20:14:42.192Z,19.92
2023-05-22T20:17:47.545Z,19.02
2023-05-22T20:21:09.728Z,26.30
2023-05-22T20:24:21.143Z,37.50
2023-05-22T20:27:23.790Z,30.58
2023-05-22T20:30:26.584Z,33.85
2023-05-22T20:33:29.258Z,31.60
2023-05-22T20:36:35.181Z,25.83
2023-05-22T20:39:37.865Z,24.87
2023-05-22T20:42:42.770Z,22.35
2023-05-22T20:45:46.802Z,22.17
2023-05-22T20:48:49.504Z,20.05
2023-05-22T20:51:54.484Z,19.17
2023-05-22T20:54:58.053Z,19.33
2023-05-22T20:58:00.931Z,18.42
2023-05-22T21:01:04.049Z,18.80
2023-05-22T21:04:06.710Z,18.05
2023-05-22T21:07:09.746Z,17.90
2023-05-22T21:10:12.479Z,18.67
2023-05-22T21:13:15.141Z,17.02
2023-05-22T21:16:17.774Z,16.98
2023-05-22T21:19:20.446Z,17.70
2023-05-22T21:22:23.156Z,15.13
2023-05-22T21:25:25.896Z,17.60
2023-05-22T21:28:28.563Z,17.73
2023-05-22T21:31:32.232Z,17.40
2023-05-22T21:34:36.511Z,14.27
2023-05-22T21:37:40.714Z,13.70
2023-05-22T21:40:43.332Z,12.43
2023-05-22T21:43:47.467Z,12.25
2023-05-22T21:46:50.185Z,12.23
2023-05-22T21:49:52.781Z,12.18
2023-05-22T21:52:55.940Z,11.27
2023-05-22T21:55:58.484Z,11.47
2023-05-22T21:59:01.191Z,11.07
2023-05-22T22:02:03.944Z,13.40
2023-05-22T22:05:07.314Z,12.23
2023-05-22T22:08:09.994Z,11.50
2023-05-22T22:11:12.640Z,12.33
2023-05-22T22:14:15.517Z,11.38
2023-05-22T22:17:18.170Z,11.10
2023-05-22T22:20:30.349Z,10.38
2023-05-22T22:23:42.435Z,10.20
2023-05-22T22:26:49.343Z,10.47
2023-05-22T22:29:52.094Z,11.63
2023-05-22T22:32:54.872Z,11.25
2023-05-22T22:35:57.604Z,11.70
2023-05-22T22:39:00.312Z,11.57
2023-05-22T22:42:05.276Z,11.93
2023-05-22T22:45:09.828Z,12.82
2023-05-22T22:48:12.494Z,12.20
2023-05-22T22:51:15.122Z,12.10
2023-05-22T22:54:17.935Z,12.53
2023-05-22T22:57:20.808Z,12.37
2023-05-22T23:00:23.886Z,11.70
2023-05-22T23:03:27.306Z,11.30
2023-05-22T23:06:29.993Z,11.65
2023-05-22T23:09:32.535Z,12.23
2023-05-22T23:12:36.329Z,11.60
2023-05-22T23:15:39.683Z,11.48
2023-05-22T23:18:42.575Z,12.38
2023-05-22T23:21:45.347Z,13.52
2023-05-22T23:24:48.025Z,11.60
2023-05-22T23:27:50.867Z,11.97
2023-05-22T23:30:53.522Z,12.43
2023-05-22T23:33:57.508Z,12.23
2023-05-22T23:37:00.755Z,11.93
2023-05-22T23:40:05.128Z,12.23
2023-05-22T23:43:07.752Z,13.97
2023-05-22T23:46:13.386Z,13.95
2023-05-22T23:49:16.128Z,13.98
2023-05-22T23:52:18.697Z,13.23
2023-05-22T23:55:22.179Z,13.83
2023-05-22T23:58:25.025Z,14.37
